createdAt,value
2022-07-25T00:00:02.791Z,0.000000
2022-07-25T00:01:00.739Z,11.250000
2022-07-25T00:02:00.897Z,11.250000
2022-07-25T00:03:22.789Z,11.250000
2022-07-25T00:04:00.873Z,0.000000
2022-07-25T00:05:02.550Z,0.000000
2022-07-25T00:06:00.844Z,0.000000
2022-07-25T00:07:00.789Z,0.000000
2022-07-25T00:08:00.865Z,0.000000
2022-07-25T00:09:00.804Z,0.000000
2022-07-25T00:10:02.727Z,0.000000
2022-07-25T00:11:00.797Z,0.000000
2022-07-25T00:12:00.877Z,0.000000
2022-07-25T00:13:00.827Z,0.000000
2022-07-25T00:14:00.901Z,0.000000
2022-07-25T00:15:02.662Z,0.000000
2022-07-25T00:16:00.929Z,0.000000
2022-07-25T00:17:00.839Z,0.000000
2022-07-25T00:18:00.929Z,0.000000
2022-07-25T00:19:01.160Z,0.000000
2022-07-25T00:20:02.824Z,0.000000
2022-07-25T00:21:00.873Z,11.250000
2022-07-25T00:22:00.933Z,11.250000
2022-07-25T00:23:00.878Z,11.250000
2022-07-25T00:24:00.950Z,11.250000
2022-07-25T00:25:03.914Z,11.250000
2022-07-25T00:26:00.962Z,11.250000
2022-07-25T00:27:00.909Z,11.250000
2022-07-25T00:28:00.984Z,11.250000
2022-07-25T00:29:00.939Z,11.250000
2022-07-25T00:30:02.905Z,11.250000
2022-07-25T00:31:01.049Z,11.250000
2022-07-25T00:32:00.995Z,11.250000
2022-07-25T00:33:00.976Z,11.250000
2022-07-25T00:34:01.020Z,0.000000
2022-07-25T00:35:02.736Z,0.000000
2022-07-25T00:36:01.038Z,0.000000
2022-07-25T00:37:01.015Z,0.000000
2022-07-25T00:38:01.041Z,0.000000
2022-07-25T00:39:01.026Z,0.000000
2022-07-25T00:40:03.018Z,0.000000
2022-07-25T00:41:01.016Z,0.000000
2022-07-25T00:42:01.079Z,0.000000
2022-07-25T00:43:01.042Z,0.000000
2022-07-25T00:44:01.092Z,0.000000
2022-07-25T00:45:03.199Z,0.000000
2022-07-25T00:46:01.169Z,0.000000
2022-07-25T00:47:01.048Z,11.250000
2022-07-25T00:48:01.166Z,11.250000
2022-07-25T00:49:01.209Z,11.250000
2022-07-25T00:50:03.032Z,11.250000
2022-07-25T00:51:01.128Z,11.250000
2022-07-25T00:52:01.169Z,11.250000
2022-07-25T00:53:01.101Z,11.250000
2022-07-25T00:54:01.191Z,0.000000
2022-07-25T00:55:02.627Z,0.000000
2022-07-25T00:56:01.168Z,0.000000
2022-07-25T00:57:01.135Z,0.000000
2022-07-25T00:58:01.178Z,0.000000
2022-07-25T00:59:01.128Z,11.250000
2022-07-25T01:00:04.401Z,11.250000
2022-07-25T01:01:00.177Z,11.250000
2022-07-25T01:02:00.302Z,11.250000
2022-07-25T01:03:00.255Z,11.250000
2022-07-25T01:04:00.470Z,11.250000
2022-07-25T01:05:01.689Z,0.000000
2022-07-25T01:06:00.298Z,0.000000
2022-07-25T01:07:00.217Z,0.000000
2022-07-25T01:08:00.470Z,0.000000
2022-07-25T01:09:00.218Z,0.000000
2022-07-25T01:10:02.136Z,0.000000
2022-07-25T01:11:00.214Z,0.000000
2022-07-25T01:12:00.496Z,11.250000
2022-07-25T01:13:00.242Z,11.250000
2022-07-25T01:14:00.296Z,11.250000
2022-07-25T01:15:01.873Z,11.250000
2022-07-25T01:16:00.546Z,11.250000
2022-07-25T01:17:00.262Z,11.250000
2022-07-25T01:18:00.392Z,11.250000
2022-07-25T01:19:00.261Z,11.250000
2022-07-25T01:20:02.243Z,11.250000
2022-07-25T01:21:00.297Z,11.250000
2022-07-25T01:22:00.363Z,11.250000
2022-07-25T01:23:00.490Z,11.250000
2022-07-25T01:24:00.476Z,11.250000
2022-07-25T01:25:02.096Z,11.250000
2022-07-25T01:26:00.369Z,11.250000
2022-07-25T01:27:00.336Z,11.250000
2022-07-25T01:28:00.477Z,11.250000
2022-07-25T01:29:00.338Z,11.250000
2022-07-25T01:30:02.235Z,11.250000
2022-07-25T01:31:00.431Z,11.250000
2022-07-25T01:32:00.485Z,11.250000
2022-07-25T01:33:00.380Z,11.250000
2022-07-25T01:34:00.435Z,11.250000
2022-07-25T01:35:02.158Z,11.250000
2022-07-25T01:36:00.512Z,11.250000
2022-07-25T01:37:00.379Z,11.250000
2022-07-25T01:38:00.463Z,11.250000
2022-07-25T01:39:00.428Z,11.250000
2022-07-25T01:40:02.919Z,0.000000
2022-07-25T01:41:00.434Z,0.000000
2022-07-25T01:42:00.517Z,0.000000
2022-07-25T01:43:00.443Z,0.000000
2022-07-25T01:44:00.507Z,0.000000
2022-07-25T01:45:02.181Z,11.250000
2022-07-25T01:46:00.610Z,11.250000
2022-07-25T01:47:00.455Z,11.250000
2022-07-25T01:48:00.566Z,11.250000
2022-07-25T01:49:00.539Z,11.250000
2022-07-25T01:50:02.232Z,11.250000
2022-07-25T01:51:00.496Z,11.250000
2022-07-25T01:52:00.547Z,11.250000
2022-07-25T01:53:00.504Z,11.250000
2022-07-25T01:54:00.596Z,11.250000
2022-07-25T01:55:02.252Z,11.250000
2022-07-25T01:56:00.596Z,11.250000
2022-07-25T01:57:00.546Z,11.250000
2022-07-25T01:58:00.622Z,11.250000
2022-07-25T01:59:00.541Z,11.250000
2022-07-25T02:00:02.424Z,11.250000
2022-07-25T02:01:00.640Z,11.250000
2022-07-25T02:02:00.735Z,0.000000
2022-07-25T02:03:00.615Z,0.000000
2022-07-25T02:04:00.794Z,0.000000
2022-07-25T02:05:02.296Z,0.000000
2022-07-25T02:06:00.707Z,0.000000
2022-07-25T02:07:00.629Z,11.250000
2022-07-25T02:08:00.681Z,11.250000
2022-07-25T02:09:00.650Z,11.250000
2022-07-25T02:10:02.598Z,11.250000
2022-07-25T02:11:00.670Z,11.250000
2022-07-25T02:12:00.750Z,0.000000
2022-07-25T02:13:00.667Z,0.000000
2022-07-25T02:14:00.728Z,0.000000
2022-07-25T02:15:02.353Z,0.000000
2022-07-25T02:16:00.747Z,0.000000
2022-07-25T02:17:00.751Z,0.000000
2022-07-25T02:18:00.789Z,0.000000
2022-07-25T02:19:00.696Z,0.000000
2022-07-25T02:20:02.737Z,11.250000
2022-07-25T02:21:00.729Z,11.250000
2022-07-25T02:22:00.791Z,11.250000
2022-07-25T02:23:00.737Z,11.250000
2022-07-25T02:24:00.848Z,11.250000
2022-07-25T02:25:02.423Z,11.250000
2022-07-25T02:26:00.822Z,11.250000
2022-07-25T02:27:00.792Z,11.250000
2022-07-25T02:28:00.817Z,0.000000
2022-07-25T02:29:00.766Z,0.000000
2022-07-25T02:30:02.836Z,0.000000
2022-07-25T02:31:00.834Z,0.000000
2022-07-25T02:32:00.861Z,0.000000
2022-07-25T02:33:00.805Z,11.250000
2022-07-25T02:34:00.863Z,11.250000
2022-07-25T02:35:02.748Z,11.250000
2022-07-25T02:36:01.076Z,11.250000
2022-07-25T02:37:00.815Z,11.250000
2022-07-25T02:38:00.890Z,0.000000
2022-07-25T02:39:00.837Z,0.000000
2022-07-25T02:40:02.742Z,0.000000
2022-07-25T02:41:00.859Z,0.000000
2022-07-25T02:42:00.958Z,0.000000
2022-07-25T02:43:00.886Z,0.000000
2022-07-25T02:44:00.953Z,0.000000
2022-07-25T02:45:02.507Z,0.000000
2022-07-25T02:46:00.994Z,0.000000
2022-07-25T02:47:00.903Z,0.000000
2022-07-25T02:48:00.983Z,0.000000
2022-07-25T02:49:00.944Z,0.000000
2022-07-25T02:50:02.804Z,0.000000
2022-07-25T02:51:00.920Z,11.250000
2022-07-25T02:52:00.997Z,11.250000
2022-07-25T02:53:00.916Z,11.250000
2022-07-25T02:54:01.029Z,11.250000
2022-07-25T02:55:07.525Z,0.000000
2022-07-25T02:56:01.005Z,0.000000
2022-07-25T02:57:00.955Z,0.000000
2022-07-25T02:58:01.016Z,11.250000
2022-07-25T02:59:00.973Z,11.250000
2022-07-25T03:00:03.201Z,11.250000
2022-07-25T03:01:01.044Z,11.250000
2022-07-25T03:02:01.081Z,11.250000
2022-07-25T03:03:01.029Z,11.250000
2022-07-25T03:04:01.152Z,11.250000
2022-07-25T03:05:02.636Z,11.250000
2022-07-25T03:06:01.106Z,11.250000
2022-07-25T03:07:01.039Z,11.250000
2022-07-25T03:08:01.090Z,0.000000
2022-07-25T03:09:01.062Z,0.000000
2022-07-25T03:10:02.881Z,0.000000
2022-07-25T03:11:01.088Z,0.000000
2022-07-25T03:12:01.133Z,0.000000
2022-07-25T03:13:01.071Z,0.000000
2022-07-25T03:14:01.151Z,0.000000
2022-07-25T03:15:02.668Z,0.000000
2022-07-25T03:16:01.165Z,11.250000
2022-07-25T03:17:01.144Z,11.250000
2022-07-25T03:18:01.160Z,11.250000
2022-07-25T03:19:01.096Z,11.250000
2022-07-25T03:20:03.043Z,11.250000
2022-07-25T03:21:01.140Z,0.000000
2022-07-25T03:22:01.211Z,0.000000
2022-07-25T03:23:01.151Z,0.000000
2022-07-25T03:24:01.294Z,0.000000
2022-07-25T03:25:02.835Z,0.000000
2022-07-25T03:26:01.215Z,0.000000
2022-07-25T03:27:01.178Z,0.000000
2022-07-25T03:28:00.434Z,0.000000
2022-07-25T03:29:00.163Z,0.000000
2022-07-25T03:30:03.045Z,0.000000
2022-07-25T03:31:00.196Z,0.000000
2022-07-25T03:32:00.376Z,0.000000
2022-07-25T03:33:00.228Z,0.000000
2022-07-25T03:34:00.325Z,0.000000
2022-07-25T03:35:01.774Z,0.000000
2022-07-25T03:36:00.309Z,11.250000
2022-07-25T03:37:00.248Z,11.250000
2022-07-25T03:38:00.300Z,22.500000
2022-07-25T03:39:00.262Z,22.500000
2022-07-25T03:40:02.434Z,22.500000
2022-07-25T03:41:00.266Z,0.000000
2022-07-25T03:42:00.333Z,0.000000
2022-07-25T03:43:00.281Z,0.000000
2022-07-25T03:44:00.328Z,11.250000
2022-07-25T03:45:01.815Z,11.250000
2022-07-25T03:46:00.457Z,11.250000
2022-07-25T03:47:00.289Z,11.250000
2022-07-25T03:48:00.387Z,11.250000
2022-07-25T03:49:00.430Z,11.250000
2022-07-25T03:50:02.541Z,11.250000
2022-07-25T03:51:05.012Z,0.000000
2022-07-25T03:52:00.591Z,0.000000
2022-07-25T03:53:00.339Z,0.000000
2022-07-25T03:54:00.419Z,0.000000
2022-07-25T03:55:02.145Z,0.000000
2022-07-25T03:56:00.432Z,0.000000
2022-07-25T03:57:00.371Z,11.250000
2022-07-25T03:58:00.468Z,11.250000
2022-07-25T03:59:00.383Z,0.000000
2022-07-25T04:00:02.990Z,0.000000
2022-07-25T04:01:00.515Z,0.000000
2022-07-25T04:02:00.552Z,0.000000
2022-07-25T04:03:00.442Z,0.000000
2022-07-25T04:04:00.528Z,0.000000
2022-07-25T04:05:01.984Z,0.000000
2022-07-25T04:06:00.514Z,0.000000
2022-07-25T04:07:00.550Z,0.000000
2022-07-25T04:08:00.588Z,0.000000
2022-07-25T04:09:00.474Z,0.000000
2022-07-25T04:10:02.395Z,11.250000
2022-07-25T04:11:00.486Z,11.250000
2022-07-25T04:12:00.584Z,0.000000
2022-07-25T04:13:00.510Z,0.000000
2022-07-25T04:14:00.589Z,11.250000
2022-07-25T04:15:02.154Z,11.250000
2022-07-25T04:16:00.590Z,11.250000
2022-07-25T04:17:00.574Z,11.250000
2022-07-25T04:18:00.643Z,11.250000
2022-07-25T04:19:00.536Z,11.250000
2022-07-25T04:20:02.455Z,0.000000
2022-07-25T04:21:00.563Z,0.000000
2022-07-25T04:22:00.648Z,0.000000
2022-07-25T04:23:00.573Z,0.000000
2022-07-25T04:24:00.654Z,0.000000
2022-07-25T04:25:03.846Z,0.000000
2022-07-25T04:26:00.649Z,0.000000
2022-07-25T04:27:00.618Z,11.250000
2022-07-25T04:28:00.704Z,11.250000
2022-07-25T04:29:00.612Z,11.250000
2022-07-25T04:30:02.454Z,11.250000
2022-07-25T04:31:00.640Z,11.250000
2022-07-25T04:32:00.880Z,0.000000
2022-07-25T04:33:00.647Z,0.000000
2022-07-25T04:34:00.861Z,0.000000
2022-07-25T04:35:02.197Z,0.000000
2022-07-25T04:36:00.734Z,0.000000
2022-07-25T04:37:00.646Z,0.000000
2022-07-25T04:38:00.742Z,0.000000
2022-07-25T04:39:00.678Z,0.000000
2022-07-25T04:40:02.691Z,0.000000
2022-07-25T04:41:00.691Z,0.000000
2022-07-25T04:42:00.764Z,0.000000
2022-07-25T04:43:00.700Z,0.000000
2022-07-25T04:44:00.749Z,0.000000
2022-07-25T04:45:02.264Z,11.250000
2022-07-25T04:46:00.839Z,11.250000
2022-07-25T04:47:00.715Z,11.250000
2022-07-25T04:48:00.798Z,11.250000
2022-07-25T04:49:00.805Z,11.250000
2022-07-25T04:50:03.218Z,11.250000
2022-07-25T04:51:00.765Z,11.250000
2022-07-25T04:52:00.842Z,0.000000
2022-07-25T04:53:00.758Z,0.000000
2022-07-25T04:54:00.859Z,0.000000
2022-07-25T04:55:02.640Z,0.000000
2022-07-25T04:56:00.858Z,0.000000
2022-07-25T04:57:00.805Z,11.250000
2022-07-25T04:58:00.884Z,11.250000
2022-07-25T04:59:06.131Z,11.250000
2022-07-25T05:00:02.896Z,11.250000
2022-07-25T05:01:00.928Z,11.250000
2022-07-25T05:02:00.930Z,11.250000
2022-07-25T05:03:00.868Z,11.250000
2022-07-25T05:04:00.943Z,11.250000
2022-07-25T05:05:03.227Z,11.250000
2022-07-25T05:06:00.998Z,11.250000
2022-07-25T05:07:00.902Z,11.250000
2022-07-25T05:08:01.010Z,11.250000
2022-07-25T05:09:00.923Z,0.000000
2022-07-25T05:10:02.797Z,0.000000
2022-07-25T05:11:00.935Z,0.000000
2022-07-25T05:12:01.022Z,11.250000
2022-07-25T05:13:00.938Z,11.250000
2022-07-25T05:14:01.049Z,11.250000
2022-07-25T05:15:03.304Z,11.250000
2022-07-25T05:16:01.058Z,11.250000
2022-07-25T05:17:00.962Z,11.250000
2022-07-25T05:18:01.025Z,11.250000
2022-07-25T05:19:00.965Z,11.250000
2022-07-25T05:20:03.357Z,11.250000
2022-07-25T05:21:01.144Z,11.250000
2022-07-25T05:22:01.098Z,11.250000
2022-07-25T05:23:00.995Z,11.250000
2022-07-25T05:24:01.077Z,11.250000
2022-07-25T05:25:02.805Z,22.500000
2022-07-25T05:26:01.111Z,22.500000
2022-07-25T05:27:01.069Z,22.500000
2022-07-25T05:28:01.102Z,11.250000
2022-07-25T05:29:01.037Z,11.250000
2022-07-25T05:30:03.173Z,22.500000
2022-07-25T05:31:01.205Z,22.500000
2022-07-25T05:32:01.239Z,33.750000
2022-07-25T05:33:01.072Z,33.750000
2022-07-25T05:34:01.142Z,33.750000
2022-07-25T05:35:02.617Z,11.250000
2022-07-25T05:36:01.182Z,11.250000
2022-07-25T05:37:01.084Z,11.250000
2022-07-25T05:38:01.223Z,11.250000
2022-07-25T05:39:01.106Z,11.250000
2022-07-25T05:40:04.262Z,11.250000
2022-07-25T05:41:01.126Z,11.250000
2022-07-25T05:42:01.203Z,11.250000
2022-07-25T05:43:03.298Z,11.250000
2022-07-25T05:44:01.226Z,11.250000
2022-07-25T05:45:01.737Z,11.250000
2022-07-25T05:46:00.242Z,11.250000
2022-07-25T05:47:00.280Z,11.250000
2022-07-25T05:48:00.282Z,11.250000
2022-07-25T05:49:00.248Z,11.250000
2022-07-25T05:50:02.162Z,11.250000
2022-07-25T05:51:00.237Z,11.250000
2022-07-25T05:52:00.292Z,11.250000
2022-07-25T05:53:00.214Z,11.250000
2022-07-25T05:54:00.350Z,11.250000
2022-07-25T05:55:01.960Z,22.500000
2022-07-25T05:56:00.346Z,22.500000
2022-07-25T05:57:00.282Z,22.500000
2022-07-25T05:58:00.330Z,22.500000
2022-07-25T05:59:00.274Z,22.500000
2022-07-25T06:00:03.007Z,11.250000
2022-07-25T06:01:00.314Z,11.250000
2022-07-25T06:02:00.508Z,11.250000
2022-07-25T06:03:00.550Z,11.250000
2022-07-25T06:04:00.376Z,11.250000
2022-07-25T06:05:01.988Z,11.250000
2022-07-25T06:06:00.404Z,11.250000
2022-07-25T06:07:00.336Z,11.250000
2022-07-25T06:08:00.443Z,11.250000
2022-07-25T06:09:00.346Z,11.250000
2022-07-25T06:10:02.427Z,11.250000
2022-07-25T06:11:00.364Z,22.500000
2022-07-25T06:12:01.276Z,22.500000
2022-07-25T06:13:00.373Z,33.750000
2022-07-25T06:14:00.467Z,33.750000
2022-07-25T06:15:22.258Z,11.250000
2022-07-25T06:16:00.515Z,11.250000
2022-07-25T06:17:00.402Z,11.250000
2022-07-25T06:18:00.483Z,11.250000
2022-07-25T06:19:00.419Z,11.250000
2022-07-25T06:20:02.345Z,33.750000
2022-07-25T06:21:00.479Z,33.750000
2022-07-25T06:22:00.497Z,33.750000
2022-07-25T06:23:00.442Z,33.750000
2022-07-25T06:24:00.965Z,33.750000
2022-07-25T06:25:03.940Z,22.500000
2022-07-25T06:26:01.028Z,22.500000
2022-07-25T06:27:00.968Z,11.250000
2022-07-25T06:28:01.034Z,11.250000
2022-07-25T06:29:00.967Z,11.250000
2022-07-25T06:30:00.782Z,11.250000
2022-07-25T06:31:00.961Z,11.250000
2022-07-25T06:32:00.941Z,11.250000
2022-07-25T06:33:00.800Z,33.750000
2022-07-25T06:34:00.834Z,33.750000
2022-07-25T06:35:00.380Z,33.750000
2022-07-25T06:36:00.467Z,33.750000
2022-07-25T06:37:00.443Z,33.750000
2022-07-25T06:38:00.475Z,33.750000
2022-07-25T06:39:00.457Z,33.750000
2022-07-25T06:40:03.023Z,33.750000
2022-07-25T06:41:00.486Z,33.750000
2022-07-25T06:42:00.540Z,33.750000
2022-07-25T06:43:00.281Z,33.750000
2022-07-25T06:44:01.115Z,45.000000
2022-07-25T06:45:00.886Z,45.000000
2022-07-25T06:46:00.405Z,67.500000
2022-07-25T06:47:00.403Z,67.500000
2022-07-25T06:48:00.395Z,67.500000
2022-07-25T06:49:00.421Z,22.500000
2022-07-25T06:50:01.192Z,22.500000
2022-07-25T06:51:01.085Z,22.500000
2022-07-25T06:52:01.156Z,22.500000
2022-07-25T06:53:01.078Z,22.500000
2022-07-25T06:54:01.294Z,33.750000
2022-07-25T06:55:00.228Z,33.750000
2022-07-25T06:56:00.324Z,78.750000
2022-07-25T06:57:00.287Z,78.750000
2022-07-25T06:58:00.308Z,78.750000
2022-07-25T06:59:00.271Z,56.250000
2022-07-25T07:00:05.028Z,56.250000
2022-07-25T07:01:00.433Z,11.250000
2022-07-25T07:02:00.362Z,11.250000
2022-07-25T07:03:00.355Z,11.250000
2022-07-25T07:04:00.375Z,56.250000
2022-07-25T07:05:03.633Z,56.250000
2022-07-25T07:06:00.428Z,56.250000
2022-07-25T07:07:00.332Z,56.250000
2022-07-25T07:08:00.395Z,56.250000
2022-07-25T07:09:00.343Z,90.000000
2022-07-25T07:10:05.129Z,90.000000
2022-07-25T07:11:00.360Z,90.000000
2022-07-25T07:12:00.453Z,45.000000
2022-07-25T07:13:00.400Z,45.000000
2022-07-25T07:14:00.429Z,45.000000
2022-07-25T07:15:03.180Z,45.000000
2022-07-25T07:16:00.466Z,45.000000
2022-07-25T07:17:00.382Z,11.250000
2022-07-25T07:18:00.487Z,11.250000
2022-07-25T07:19:00.394Z,45.000000
2022-07-25T07:20:03.293Z,45.000000
2022-07-25T07:21:00.418Z,45.000000
2022-07-25T07:22:00.484Z,45.000000
2022-07-25T07:23:00.432Z,45.000000
2022-07-25T07:24:00.536Z,11.250000
2022-07-25T07:25:03.138Z,11.250000
2022-07-25T07:26:00.520Z,11.250000
2022-07-25T07:27:00.460Z,45.000000
2022-07-25T07:28:00.516Z,45.000000
2022-07-25T07:29:00.507Z,45.000000
2022-07-25T07:30:03.716Z,56.250000
2022-07-25T07:31:16.904Z,56.250000
2022-07-25T07:32:00.613Z,11.250000
2022-07-25T07:33:00.506Z,11.250000
2022-07-25T07:34:00.551Z,45.000000
2022-07-25T07:35:03.455Z,45.000000
2022-07-25T07:36:00.618Z,45.000000
2022-07-25T07:37:00.520Z,45.000000
2022-07-25T07:38:00.574Z,45.000000
2022-07-25T07:39:00.557Z,33.750000
2022-07-25T07:40:03.473Z,33.750000
2022-07-25T07:41:00.546Z,33.750000
2022-07-25T07:42:00.822Z,78.750000
2022-07-25T07:43:00.573Z,78.750000
2022-07-25T07:44:00.624Z,90.000000
2022-07-25T07:45:03.326Z,90.000000
2022-07-25T07:46:01.309Z,22.500000
2022-07-25T07:47:00.672Z,22.500000
2022-07-25T07:48:00.681Z,22.500000
2022-07-25T07:49:00.715Z,78.750000
2022-07-25T07:50:03.809Z,78.750000
2022-07-25T07:51:00.621Z,78.750000
2022-07-25T07:52:00.674Z,56.250000
2022-07-25T07:53:00.624Z,56.250000
2022-07-25T07:54:00.712Z,56.250000
2022-07-25T07:55:03.499Z,56.250000
2022-07-25T07:56:00.717Z,56.250000
2022-07-25T07:57:00.658Z,67.500000
2022-07-25T07:58:00.716Z,67.500000
2022-07-25T07:59:00.662Z,45.000000
2022-07-25T08:00:03.841Z,45.000000
2022-07-25T08:01:00.706Z,45.000000
2022-07-25T08:02:00.765Z,78.750000
2022-07-25T08:03:00.787Z,78.750000
2022-07-25T08:04:00.746Z,67.500000
2022-07-25T08:05:04.070Z,67.500000
2022-07-25T08:06:00.800Z,67.500000
2022-07-25T08:07:00.722Z,78.750000
2022-07-25T08:08:00.803Z,78.750000
2022-07-25T08:09:00.749Z,90.000000
2022-07-25T08:10:03.563Z,90.000000
2022-07-25T08:11:00.753Z,90.000000
2022-07-25T08:12:00.839Z,45.000000
2022-07-25T08:13:00.748Z,45.000000
2022-07-25T08:14:00.824Z,67.500000
2022-07-25T08:15:03.540Z,67.500000
2022-07-25T08:16:00.906Z,67.500000
2022-07-25T08:17:00.810Z,11.250000
2022-07-25T08:18:00.883Z,11.250000
2022-07-25T08:19:00.797Z,11.250000
2022-07-25T08:20:21.080Z,11.250000
2022-07-25T08:21:00.830Z,11.250000
2022-07-25T08:22:00.873Z,101.250000
2022-07-25T08:23:00.823Z,101.250000
2022-07-25T08:24:00.934Z,101.250000
2022-07-25T08:25:03.800Z,45.000000
2022-07-25T08:26:00.890Z,45.000000
2022-07-25T08:27:00.858Z,45.000000
2022-07-25T08:28:00.911Z,45.000000
2022-07-25T08:29:18.109Z,45.000000
2022-07-25T08:30:05.285Z,67.500000
2022-07-25T08:31:00.988Z,67.500000
2022-07-25T08:32:00.953Z,78.750000
2022-07-25T08:33:00.933Z,78.750000
2022-07-25T08:34:00.960Z,78.750000
2022-07-25T08:35:05.976Z,78.750000
2022-07-25T08:36:01.023Z,78.750000
2022-07-25T08:37:00.911Z,78.750000
2022-07-25T08:38:00.973Z,78.750000
2022-07-25T08:39:00.940Z,78.750000
2022-07-25T08:40:04.532Z,56.250000
2022-07-25T08:41:00.939Z,56.250000
2022-07-25T08:42:01.066Z,56.250000
2022-07-25T08:43:00.940Z,56.250000
2022-07-25T08:44:01.022Z,56.250000
2022-07-25T08:45:11.335Z,67.500000
2022-07-25T08:46:01.088Z,67.500000
2022-07-25T08:47:00.979Z,67.500000
2022-07-25T08:48:01.239Z,56.250000
2022-07-25T08:49:01.143Z,56.250000
2022-07-25T08:50:04.559Z,67.500000
2022-07-25T08:51:01.050Z,67.500000
2022-07-25T08:52:01.075Z,90.000000
2022-07-25T08:53:31.050Z,90.000000
2022-07-25T08:54:01.109Z,90.000000
2022-07-25T08:55:11.124Z,101.250000
2022-07-25T08:56:03.312Z,101.250000
2022-07-25T08:57:01.059Z,78.750000
2022-07-25T08:58:01.128Z,78.750000
2022-07-25T08:59:01.050Z,78.750000
2022-07-25T09:00:08.078Z,67.500000
2022-07-25T09:01:01.077Z,67.500000
2022-07-25T09:02:01.565Z,90.000000
2022-07-25T09:03:01.159Z,90.000000
2022-07-25T09:04:01.911Z,90.000000
2022-07-25T09:05:04.199Z,67.500000
2022-07-25T09:06:02.244Z,67.500000
2022-07-25T09:07:04.970Z,67.500000
2022-07-25T09:08:01.188Z,90.000000
2022-07-25T09:09:01.136Z,90.000000
2022-07-25T09:10:06.388Z,78.750000
2022-07-25T09:11:01.129Z,78.750000
2022-07-25T09:12:01.252Z,56.250000
2022-07-25T09:13:01.138Z,56.250000
2022-07-25T09:14:02.832Z,56.250000
2022-07-25T09:15:03.966Z,67.500000
2022-07-25T09:16:00.316Z,67.500000
2022-07-25T09:17:00.182Z,67.500000
2022-07-25T09:18:00.261Z,78.750000
2022-07-25T09:19:00.183Z,78.750000
2022-07-25T09:20:03.355Z,78.750000
2022-07-25T09:21:00.223Z,78.750000
2022-07-25T09:22:00.257Z,78.750000
2022-07-25T09:23:00.196Z,101.250000
2022-07-25T09:24:00.292Z,101.250000
2022-07-25T09:25:03.083Z,67.500000
2022-07-25T09:26:00.269Z,67.500000
2022-07-25T09:27:00.226Z,67.500000
2022-07-25T09:28:00.265Z,67.500000
2022-07-25T09:29:00.222Z,67.500000
2022-07-25T09:30:03.408Z,67.500000
2022-07-25T09:31:00.286Z,67.500000
2022-07-25T09:32:00.321Z,67.500000
2022-07-25T09:33:00.263Z,67.500000
2022-07-25T09:34:00.324Z,67.500000
2022-07-25T09:35:03.374Z,78.750000
2022-07-25T09:36:00.400Z,78.750000
2022-07-25T09:37:00.279Z,78.750000
2022-07-25T09:38:00.355Z,78.750000
2022-07-25T09:39:00.310Z,78.750000
2022-07-25T09:40:03.243Z,78.750000
2022-07-25T09:41:00.328Z,78.750000
2022-07-25T09:42:00.443Z,78.750000
2022-07-25T09:43:00.338Z,90.000000
2022-07-25T09:44:00.393Z,90.000000
2022-07-25T09:45:03.324Z,101.250000
2022-07-25T09:46:00.475Z,101.250000
2022-07-25T09:47:00.347Z,90.000000
2022-07-25T09:48:00.460Z,90.000000
2022-07-25T09:49:00.570Z,90.000000
2022-07-25T09:50:03.444Z,90.000000
2022-07-25T09:51:00.392Z,90.000000
2022-07-25T09:52:00.581Z,90.000000
2022-07-25T09:53:00.380Z,90.000000
2022-07-25T09:54:00.500Z,90.000000
2022-07-25T09:55:03.810Z,56.250000
2022-07-25T09:56:00.468Z,56.250000
2022-07-25T09:57:00.412Z,56.250000
2022-07-25T09:58:00.471Z,56.250000
2022-07-25T09:59:00.418Z,56.250000
2022-07-25T10:00:03.817Z,67.500000
2022-07-25T10:01:00.490Z,67.500000
2022-07-25T10:02:00.614Z,67.500000
2022-07-25T10:03:00.533Z,67.500000
2022-07-25T10:04:00.519Z,67.500000
2022-07-25T10:05:03.181Z,33.750000
2022-07-25T10:06:00.537Z,33.750000
2022-07-25T10:07:00.470Z,33.750000
2022-07-25T10:08:00.585Z,90.000000
2022-07-25T10:09:00.521Z,90.000000
2022-07-25T10:10:03.745Z,90.000000
2022-07-25T10:11:00.536Z,90.000000
2022-07-25T10:12:00.590Z,90.000000
2022-07-25T10:13:00.664Z,90.000000
2022-07-25T10:14:00.597Z,45.000000
2022-07-25T10:15:03.241Z,45.000000
2022-07-25T10:16:00.601Z,90.000000
2022-07-25T10:17:00.694Z,90.000000
2022-07-25T10:18:00.626Z,78.750000
2022-07-25T10:19:00.550Z,78.750000
2022-07-25T10:20:04.182Z,78.750000
2022-07-25T10:21:00.592Z,78.750000
2022-07-25T10:22:00.654Z,78.750000
2022-07-25T10:23:00.607Z,67.500000
2022-07-25T10:24:00.692Z,67.500000
2022-07-25T10:25:03.568Z,67.500000
2022-07-25T10:26:00.665Z,101.250000
2022-07-25T10:27:00.617Z,101.250000
2022-07-25T10:28:00.673Z,67.500000
2022-07-25T10:29:00.661Z,67.500000
2022-07-25T10:30:04.072Z,67.500000
2022-07-25T10:31:00.694Z,67.500000
2022-07-25T10:32:00.689Z,67.500000
2022-07-25T10:33:00.664Z,67.500000
2022-07-25T10:34:00.710Z,78.750000
2022-07-25T10:35:03.660Z,78.750000
2022-07-25T10:36:00.733Z,90.000000
2022-07-25T10:37:00.666Z,90.000000
2022-07-25T10:38:00.751Z,90.000000
2022-07-25T10:39:00.682Z,78.750000
2022-07-25T10:40:03.747Z,78.750000
2022-07-25T10:41:00.712Z,78.750000
2022-07-25T10:42:00.757Z,78.750000
2022-07-25T10:43:00.710Z,56.250000
2022-07-25T10:44:00.767Z,56.250000
2022-07-25T10:45:03.523Z,56.250000
2022-07-25T10:46:00.826Z,45.000000
2022-07-25T10:47:01.066Z,45.000000
2022-07-25T10:48:00.637Z,45.000000
2022-07-25T10:49:00.505Z,67.500000
2022-07-25T10:50:16.715Z,67.500000
2022-07-25T10:51:00.577Z,22.500000
2022-07-25T10:52:00.673Z,22.500000
2022-07-25T10:53:00.718Z,90.000000
2022-07-25T10:54:00.771Z,90.000000
2022-07-25T10:55:03.650Z,90.000000
2022-07-25T10:56:06.123Z,11.250000
2022-07-25T10:57:00.716Z,11.250000
2022-07-25T10:58:16.681Z,11.250000
2022-07-25T10:59:00.757Z,67.500000
2022-07-25T11:00:04.269Z,67.500000
2022-07-25T11:01:00.858Z,67.500000
2022-07-25T11:02:00.811Z,67.500000
2022-07-25T11:03:00.889Z,67.500000
2022-07-25T11:04:00.824Z,67.500000
2022-07-25T11:05:03.646Z,67.500000
2022-07-25T11:06:00.859Z,78.750000
2022-07-25T11:07:00.794Z,78.750000
2022-07-25T11:08:21.086Z,78.750000
2022-07-25T11:09:00.822Z,78.750000
2022-07-25T11:10:04.492Z,78.750000
2022-07-25T11:11:00.819Z,78.750000
2022-07-25T11:12:00.934Z,78.750000
2022-07-25T11:13:00.844Z,78.750000
2022-07-25T11:14:00.905Z,0.000000
2022-07-25T11:15:03.576Z,0.000000
2022-07-25T11:16:00.938Z,0.000000
2022-07-25T11:17:00.907Z,0.000000
2022-07-25T11:18:00.936Z,0.000000
2022-07-25T11:19:00.876Z,0.000000
2022-07-25T11:20:05.669Z,0.000000
2022-07-25T11:21:06.077Z,0.000000
2022-07-25T11:22:00.995Z,0.000000
2022-07-25T11:23:00.890Z,0.000000
2022-07-25T11:24:00.984Z,11.250000
2022-07-25T11:25:03.743Z,11.250000
2022-07-25T11:26:00.986Z,22.500000
2022-07-25T11:27:00.929Z,22.500000
2022-07-25T11:28:01.040Z,22.500000